Time;durP1;ratioP1;P1;durP2;ratioP2;P2;SDS_P1;SDS_P2;PMS_P1;PMS_P2;Temp;Humidity;BMP_temperature;BMP_pressure;BME280_temperature;BME280_humidity;BME280_pressure;Samples;Min_cycle;Max_cycle;Signal;HPM_P1;HPM_P2
2023/12/25 00:02:13;;;;;;;0.75;0.32;;;12.40;99.90;;;12.48;100.00;100161.69;5239593;28;20076;-50
2023/12/25 00:04:46;;;;;;;0.25;0.25;;;12.40;99.90;;;12.46;100.00;100159.91;5224847;28;20044;-48
2023/12/25 00:07:18;;;;;;;0.43;0.43;;;12.40;99.90;;;12.46;100.00;100165.13;5249445;28;20052;-49
2023/12/25 00:09:51;;;;;;;0.32;0.32;;;12.40;99.90;;;12.43;100.00;100159.84;5235291;28;20466;-51
2023/12/25 00:12:24;;;;;;;0.45;0.45;;;12.40;99.90;;;12.43;100.00;100170.31;5235457;28;20053;-49
2023/12/25 00:14:56;;;;;;;0.40;0.40;;;12.30;99.90;;;12.44;100.00;100158.97;5239402;28;20045;-49
2023/12/25 00:17:30;;;;;;;0.55;0.40;;;12.30;99.90;;;12.45;100.00;100169.50;5231249;28;20049;-48
2023/12/25 00:20:04;;;;;;;0.30;0.30;;;12.40;99.90;;;12.45;100.00;100160.75;5240478;28;20044;-48
2023/12/25 00:22:37;;;;;;;0.22;0.22;;;12.40;99.90;;;12.44;100.00;100174.66;5234219;28;20059;-48
2023/12/25 00:25:09;;;;;;;1.92;0.20;;;12.30;99.90;;;12.43;100.00;100170.31;5239980;28;20127;-49
2023/12/25 00:27:42;;;;;;;2.67;0.32;;;12.40;99.90;;;12.43;100.00;100162.47;5227229;28;20420;-50
2023/12/25 00:30:15;;;;;;;0.30;0.30;;;12.30;99.90;;;12.43;100.00;100172.91;5238738;28;20049;-50
2023/12/25 00:32:50;;;;;;;;;;;12.40;99.90;;;12.43;100.00;100159.84;5234991;28;20630;-48
2023/12/25 00:35:23;;;;;;;;;;;12.30;99.90;;;12.42;100.00;100163.31;5235707;28;19925;-49
2023/12/25 00:37:55;;;;;;;0.30;0.30;;;12.30;99.90;;;12.42;100.00;100164.19;5237884;28;19924;-50
2023/12/25 00:40:27;;;;;;;0.30;0.30;;;12.40;99.90;;;12.43;100.00;100170.31;5233835;28;20041;-48
2023/12/25 00:43:00;;;;;;;0.20;0.20;;;12.30;99.90;;;12.43;100.00;100172.91;5239328;28;20052;-49
2023/12/25 00:45:32;;;;;;;0.30;0.30;;;12.30;99.90;;;12.43;100.00;100159.84;5231278;28;20052;-50
2023/12/25 00:48:06;;;;;;;0.22;0.22;;;12.30;99.90;;;12.42;100.00;100168.53;5229459;28;20079;-50
2023/12/25 00:50:39;;;;;;;0.22;0.22;;;12.40;99.90;;;12.41;100.00;100170.28;5224825;28;20045;-49
2023/12/25 00:53:11;;;;;;;0.17;0.17;;;12.30;99.90;;;12.40;100.00;100152.84;5235998;28;20048;-49
2023/12/25 00:55:44;;;;;;;0.20;0.20;;;12.30;99.90;;;12.40;100.00;100175.50;5229140;28;20059;-49
2023/12/25 00:58:16;;;;;;;0.43;0.30;;;12.30;99.90;;;12.43;100.00;100178.16;5237377;28;20049;-48
2023/12/25 01:00:48;;;;;;;0.28;0.28;;;12.30;99.90;;;12.42;100.00;100192.06;5229488;28;20063;-48
2023/12/25 01:03:23;;;;;;;0.30;0.30;;;12.30;99.90;;;12.44;100.00;100179.91;5226960;28;20483;-49
2023/12/25 01:05:55;;;;;;;0.10;0.10;;;12.30;99.90;;;12.46;100.00;100186.94;5238335;28;20064;-50
2023/12/25 01:08:27;;;;;;;0.30;0.30;;;12.40;99.90;;;12.50;100.00;100186.09;5221771;28;20033;-49
2023/12/25 01:11:03;;;;;;;0.30;0.20;;;12.40;99.90;;;12.50;100.00;100193.94;5228834;28;20056;-49
2023/12/25 01:13:35;;;;;;;0.15;0.15;;;12.40;99.90;;;12.54;100.00;100178.34;5225278;28;20071;-49
2023/12/25 01:16:08;;;;;;;0.30;0.30;;;12.40;99.90;;;12.54;100.00;100184.44;5222941;28;20609;-50
2023/12/25 01:18:41;;;;;;;0.82;0.15;;;12.50;99.90;;;12.57;100.00;100162.69;5230362;28;20059;-49
2023/12/25 01:21:14;;;;;;;0.98;0.30;;;12.50;99.90;;;12.60;100.00;100171.47;5221958;28;20049;-52
2023/12/25 01:23:46;;;;;;;0.43;0.30;;;12.50;99.90;;;12.60;100.00;100173.22;5221495;28;20047;-49
2023/12/25 01:26:19;;;;;;;0.13;0.13;;;12.50;99.90;;;12.60;100.00;100173.22;5238057;28;20523;-50
2023/12/25 01:28:52;;;;;;;0.13;0.13;;;12.50;99.90;;;12.59;100.00;100169.72;5215710;28;20053;-48
2023/12/25 01:31:24;;;;;;;0.30;0.30;;;12.50;99.90;;;12.58;100.00;100175.78;5218786;28;20056;-48
2023/12/25 01:33:58;;;;;;;0.28;0.28;;;12.50;99.90;;;12.62;100.00;100172.38;5234096;28;20126;-48
2023/12/25 01:36:31;;;;;;;0.20;0.20;;;12.50;99.90;;;12.61;100.00;100190.66;5219799;28;20056;-49
2023/12/25 01:39:03;;;;;;;0.30;0.30;;;12.50;99.90;;;12.60;100.00;100184.56;5226235;28;20060;-49
2023/12/25 01:41:36;;;;;;;0.47;0.30;;;12.50;99.90;;;12.63;100.00;100189.81;5226738;28;20424;-48
2023/12/25 01:44:08;;;;;;;0.20;0.20;;;12.50;99.90;;;12.62;100.00;100190.69;5231932;28;20040;-53
2023/12/25 01:46:41;;;;;;;0.13;0.13;;;12.50;99.90;;;12.63;100.00;100205.50;5221043;28;20132;-50
2023/12/25 01:49:15;;;;;;;1.15;0.52;;;12.60;99.90;;;12.63;100.00;100205.50;5220872;28;20036;-50
2023/12/25 01:51:47;;;;;;;1.35;0.20;;;12.50;99.90;;;12.64;100.00;100202.03;5221034;28;20136;-49
2023/12/25 01:54:20;;;;;;;0.40;0.40;;;12.60;99.90;;;12.64;100.00;100216.84;5221950;28;20049;-50
2023/12/25 01:56:52;;;;;;;0.15;0.15;;;12.60;99.90;;;12.62;100.00;100211.59;5220276;28;20059;-49
2023/12/25 01:59:28;;;;;;;0.20;0.20;;;12.60;99.90;;;12.65;100.00;100222.13;5224712;28;20094;-48
2023/12/25 02:02:01;;;;;;;0.22;0.22;;;12.60;99.90;;;12.65;100.00;100224.75;5220399;28;20045;-52
2023/12/25 02:04:35;;;;;;;0.20;0.20;;;12.60;99.90;;;12.67;100.00;100217.78;5221507;28;20045;-49
2023/12/25 02:07:08;;;;;;;0.28;0.28;;;12.60;99.90;;;12.68;100.00;100223.91;5224913;28;20048;-49
2023/12/25 02:09:41;;;;;;;0.03;0.03;;;12.60;99.90;;;12.70;100.00;100209.09;5226597;28;20049;-49
2023/12/25 02:12:13;;;;;;;0.30;0.15;;;12.60;99.90;;;12.70;100.00;100228.28;5236449;28;20582;-50
2023/12/25 02:14:46;;;;;;;0.10;0.10;;;12.60;99.90;;;12.70;100.00;100219.56;5226097;28;20053;-50
2023/12/25 02:17:19;;;;;;;0.15;0.15;;;12.60;99.90;;;12.71;100.00;100231.78;5227502;28;20567;-49
2023/12/25 02:19:54;;;;;;;0.40;0.22;;;12.60;99.90;;;12.70;100.00;100233.50;5223825;28;20090;-50
2023/12/25 02:22:26;;;;;;;0.13;0.13;;;12.60;99.90;;;12.70;100.00;100230.91;5223568;28;20045;-49
2023/12/25 02:25:03;;;;;;;0.13;0.13;;;12.60;99.90;;;12.70;100.00;100228.28;5224946;28;20404;-49
2023/12/25 02:27:37;;;;;;;0.10;0.10;;;12.60;99.90;;;12.72;100.00;100226.59;5230229;28;20176;-50
2023/12/25 02:30:10;;;;;;;0.30;0.30;;;12.70;99.90;;;12.72;100.00;100231.84;5220702;28;20143;-49
2023/12/25 02:32:42;;;;;;;0.28;0.28;;;12.70;99.90;;;12.73;100.00;100249.28;5240995;28;20049;-51
2023/12/25 02:35:15;;;;;;;0.85;0.20;;;12.70;99.90;;;12.75;100.00;100231.88;5232826;28;20138;-50
2023/12/25 02:37:47;;;;;;;0.22;0.22;;;12.70;99.90;;;12.73;100.00;100238.81;5224040;28;20131;-49
2023/12/25 02:40:21;;;;;;;0.30;0.30;;;12.70;99.90;;;12.74;100.00;100253.66;5223677;28;20526;-49
2023/12/25 02:42:55;;;;;;;1.02;0.30;;;12.70;99.90;;;12.74;100.00;100251.03;5222758;28;20152;-49
2023/12/25 02:45:28;;;;;;;1.17;0.40;;;12.70;99.90;;;12.76;100.00;100244.09;5221171;28;20041;-52
2023/12/25 02:48:00;;;;;;;0.20;0.20;;;12.70;99.90;;;12.75;100.00;100260.63;5228094;28;20144;-49
2023/12/25 02:50:33;;;;;;;0.15;0.13;;;12.70;99.90;;;12.75;100.00;100242.31;5225086;28;20044;-51
2023/12/25 02:53:06;;;;;;;0.47;0.30;;;12.70;99.90;;;12.74;100.00;100248.41;5233040;28;20052;-51
2023/12/25 02:55:39;;;;;;;0.40;0.30;;;12.70;99.90;;;12.74;100.00;100251.03;5224446;28;20048;-50
2023/12/25 02:58:13;;;;;;;0.15;0.15;;;12.70;99.90;;;12.73;100.00;100249.28;5225838;28;20045;-49
2023/12/25 03:00:45;;;;;;;0.20;0.20;;;12.70;99.90;;;12.71;100.00;100229.16;5223031;28;20056;-48
2023/12/25 03:03:18;;;;;;;0.25;0.25;;;12.70;99.90;;;12.69;100.00;100231.75;5226220;28;20140;-48
2023/12/25 03:05:50;;;;;;;0.13;0.13;;;12.60;99.90;;;12.70;100.00;100230.91;5224871;28;20060;-48
2023/12/25 03:08:24;;;;;;;0.15;0.15;;;12.60;99.90;;;12.70;100.00;100228.28;5224909;28;20045;-49
2023/12/25 03:10:56;;;;;;;0.13;0.13;;;12.60;99.90;;;12.70;100.00;100236.13;5225367;28;20052;-50
2023/12/25 03:13:30;;;;;;;0.20;0.20;;;12.60;99.90;;;12.68;100.00;100224.78;5224945;28;20047;-52
2023/12/25 03:16:06;;;;;;;0.13;0.13;;;12.60;99.90;;;12.71;100.00;100206.53;5225607;28;20037;-49
2023/12/25 03:18:38;;;;;;;0.22;0.22;;;12.60;99.90;;;12.70;100.00;100223.06;5232899;28;20041;-50
2023/12/25 03:21:10;;;;;;;0.40;0.40;;;12.60;99.90;;;12.72;100.00;100226.59;5226814;28;20041;-49
2023/12/25 03:23:43;;;;;;;0.13;0.13;;;12.60;99.90;;;12.74;100.00;100221.38;5224572;28;20052;-49
2023/12/25 03:26:15;;;;;;;0.45;0.20;;;12.60;99.90;;;12.72;100.00;100216.13;5226660;28;20534;-50
2023/12/25 03:28:49;;;;;;;0.20;0.20;;;12.60;99.90;;;12.72;100.00;100220.50;5225204;28;20045;-50
2023/12/25 03:31:21;;;;;;;0.35;0.22;;;12.70;99.90;;;12.72;100.00;100221.38;5226797;28;20037;-49
2023/12/25 03:33:54;;;;;;;0.25;0.25;;;12.60;99.90;;;12.73;100.00;100232.72;5225533;28;20217;-50
2023/12/25 03:36:26;;;;;;;0.30;0.30;;;12.70;99.90;;;12.72;100.00;100216.13;5222148;28;20056;-51
2023/12/25 03:38:59;;;;;;;0.30;0.30;;;12.70;99.90;;;12.75;100.00;100231.88;5224618;28;20126;-49
2023/12/25 03:41:31;;;;;;;0.50;0.50;;;12.70;99.90;;;12.76;100.00;100219.66;5224171;28;20399;-48
2023/12/25 03:44:05;;;;;;;0.20;0.20;;;12.70;99.90;;;12.75;100.00;100231.00;5238888;28;20056;-49
2023/12/25 03:46:37;;;;;;;0.22;0.22;;;12.70;99.90;;;12.76;100.00;100231.00;5223522;28;20041;-49
2023/12/25 03:49:10;;;;;;;0.40;0.40;;;12.70;99.90;;;12.80;100.00;100244.16;5226111;28;20056;-48
2023/12/25 03:51:43;;;;;;;0.30;0.25;;;12.70;99.90;;;12.77;100.00;100240.59;5223529;28;20132;-52
2023/12/25 03:54:15;;;;;;;0.30;0.30;;;12.70;99.90;;;12.77;100.00;100222.31;5226295;28;20500;-49
2023/12/25 03:56:47;;;;;;;0.25;0.25;;;12.70;99.90;;;12.77;100.00;100235.38;5223332;28;20037;-48
2023/12/25 03:59:21;;;;;;;0.65;0.30;;;12.70;99.90;;;12.78;100.00;100236.28;5224645;28;20049;-49
2023/12/25 04:01:54;;;;;;;0.30;0.30;;;12.70;99.90;;;12.77;100.00;100255.41;5224160;28;20506;-50
2023/12/25 04:04:26;;;;;;;2.17;0.40;;;12.70;99.90;;;12.76;100.00;100251.94;5221473;28;20435;-49
2023/12/25 04:06:59;;;;;;;0.22;0.22;;;12.70;99.90;;;12.76;100.00;100249.31;5223962;28;20072;-48
2023/12/25 04:09:31;;;;;;;0.30;0.30;;;12.70;99.90;;;12.75;100.00;100250.16;5230940;28;20041;-50
2023/12/25 04:12:04;;;;;;;0.63;0.40;;;12.70;99.90;;;12.74;100.00;100250.16;5223014;28;20088;-50
2023/12/25 04:14:40;;;;;;;0.30;0.20;;;12.70;99.90;;;12.72;100.00;100237.06;5222996;28;20508;-50
2023/12/25 04:17:12;;;;;;;;;;;12.70;99.90;;;12.72;100.00;100237.06;5225071;28;20047;-49
2023/12/25 04:19:45;;;;;;;0.30;0.30;;;12.70;99.90;;;12.72;100.00;100244.91;5223069;28;19924;-50
2023/12/25 04:22:17;;;;;;;0.10;0.10;;;12.70;99.90;;;12.73;100.00;100245.78;5222719;28;20396;-48
2023/12/25 04:24:49;;;;;;;0.38;0.20;;;12.70;99.90;;;12.71;100.00;100237.00;5223286;28;20689;-49
2023/12/25 04:27:22;;;;;;;0.60;0.30;;;12.70;99.90;;;12.70;100.00;100228.28;5222926;28;20052;-52
2023/12/25 04:29:56;;;;;;;0.70;0.25;;;12.70;99.90;;;12.70;100.00;100249.22;5223844;28;20602;-50
2023/12/25 04:32:28;;;;;;;0.57;0.40;;;12.70;99.90;;;12.69;100.00;100230.88;5221350;28;20500;-51
2023/12/25 04:35:00;;;;;;;1.05;0.32;;;12.70;99.90;;;12.68;100.00;100224.78;5225549;28;20055;-50
2023/12/25 04:37:34;;;;;;;0.30;0.30;;;12.60;99.90;;;12.68;100.00;100244.81;5223179;28;20060;-49
2023/12/25 04:40:07;;;;;;;2.38;0.30;;;12.70;99.90;;;12.70;100.00;100236.13;5222856;28;20114;-48
2023/12/25 04:42:40;;;;;;;0.65;0.32;;;12.70;99.90;;;12.71;100.00;100240.53;5222815;28;20072;-49
2023/12/25 04:45:14;;;;;;;0.40;0.25;;;12.70;99.90;;;12.71;100.00;100240.53;5224653;28;20048;-50
2023/12/25 04:47:47;;;;;;;0.15;0.13;;;12.70;99.90;;;12.72;100.00;100244.91;5221435;28;20050;-52
2023/12/25 04:50:20;;;;;;;0.68;0.30;;;12.70;99.90;;;12.73;100.00;100246.66;5223617;28;20076;-49
2023/12/25 04:52:52;;;;;;;0.13;0.13;;;12.70;99.90;;;12.75;100.00;100247.56;5223293;28;20048;-49
2023/12/25 04:55:25;;;;;;;0.28;0.28;;;12.70;99.90;;;12.75;100.00;100239.72;5224521;28;20686;-49
2023/12/25 04:57:57;;;;;;;0.20;0.20;;;12.70;99.90;;;12.76;100.00;100257.16;5221836;28;20613;-52
2023/12/25 05:00:32;;;;;;;0.25;0.25;;;12.70;99.90;;;12.78;100.00;100257.22;5231734;28;20049;-51
2023/12/25 05:03:05;;;;;;;0.17;0.17;;;12.70;99.90;;;12.79;100.00;100258.09;5223488;28;20130;-50
2023/12/25 05:05:37;;;;;;;0.22;0.22;;;12.70;99.90;;;12.79;100.00;100243.28;5221214;28;20053;-49
2023/12/25 05:08:10;;;;;;;2.15;0.32;;;12.70;99.90;;;12.77;100.00;100251.06;5238495;28;20055;-49
2023/12/25 05:10:42;;;;;;;0.47;0.40;;;12.70;99.90;;;12.76;100.00;100264.13;5221753;28;20044;-48
2023/12/25 05:13:15;;;;;;;0.20;0.20;;;12.70;99.90;;;12.73;100.00;100256.25;5223980;28;20167;-50
2023/12/25 05:15:49;;;;;;;0.43;0.20;;;12.70;99.90;;;12.71;100.00;100244.84;5236015;28;20527;-51
2023/12/25 05:18:21;;;;;;;1.38;0.30;;;12.70;99.90;;;12.71;100.00;100239.63;5222882;28;20450;-49
2023/12/25 05:20:53;;;;;;;0.40;0.40;;;12.70;99.90;;;12.69;100.00;100247.44;5223696;28;20127;-50
2023/12/25 05:23:26;;;;;;;0.22;0.22;;;12.70;99.90;;;12.68;100.00;100239.59;5220428;28;20057;-51
2023/12/25 05:25:58;;;;;;;0.25;0.25;;;12.60;99.90;;;12.66;100.00;100225.63;5223186;28;20049;-50
2023/12/25 05:28:31;;;;;;;0.13;0.13;;;12.60;99.90;;;12.64;100.00;100243.00;5222278;28;20049;-52
2023/12/25 05:31:05;;;;;;;0.20;0.13;;;12.60;99.90;;;12.61;100.00;100241.22;5223182;28;20044;-50
2023/12/25 05:33:37;;;;;;;0.20;0.20;;;12.60;99.90;;;12.60;100.00;100246.44;5222571;28;20140;-49
2023/12/25 05:36:09;;;;;;;0.10;0.10;;;12.60;99.90;;;12.57;100.00;100235.91;5225536;28;20507;-49
2023/12/25 05:38:42;;;;;;;0.13;0.13;;;12.50;99.90;;;12.58;100.00;100237.66;5228675;28;20593;-48
2023/12/25 05:41:14;;;;;;;0.45;0.22;;;12.50;99.90;;;12.52;100.00;100228.00;5225084;28;20040;-48
2023/12/25 05:43:47;;;;;;;0.28;0.28;;;12.50;99.90;;;12.50;100.00;100237.50;5226424;28;20139;-53
2023/12/25 05:46:20;;;;;;;0.20;0.20;;;12.40;99.90;;;12.47;100.00;100232.25;5226974;28;20059;-49
2023/12/25 05:48:53;;;;;;;0.13;0.13;;;12.40;99.90;;;12.45;100.00;100229.63;5226425;28;20527;-51
2023/12/25 05:51:25;;;;;;;0.30;0.30;;;12.40;99.90;;;12.45;100.00;100231.31;5226892;28;20049;-49
2023/12/25 05:53:58;;;;;;;0.17;0.17;;;12.40;99.90;;;12.43;100.00;100230.41;5226850;28;20060;-49
2023/12/25 05:56:30;;;;;;;0.20;0.20;;;12.40;99.90;;;12.42;100.00;100233.88;5226080;28;20053;-51
2023/12/25 05:59:03;;;;;;;0.20;0.20;;;12.30;99.90;;;12.40;100.00;100239.09;5225988;28;20131;-49
2023/12/25 06:01:37;;;;;;;0.20;0.20;;;12.30;99.90;;;12.38;100.00;100239.91;5225267;28;20407;-51
2023/12/25 06:04:09;;;;;;;0.55;0.20;;;12.30;99.90;;;12.37;100.00;100243.38;5228425;28;20067;-48
2023/12/25 06:06:42;;;;;;;0.13;0.13;;;12.30;99.90;;;12.36;100.00;100241.63;5225368;28;20049;-52
2023/12/25 06:09:15;;;;;;;0.20;0.20;;;12.30;99.90;;;12.35;100.00;100242.47;5226724;28;20041;-51
2023/12/25 06:11:47;;;;;;;0.28;0.28;;;12.30;99.90;;;12.33;100.00;100242.44;5225777;28;20040;-49
2023/12/25 06:14:19;;;;;;;0.32;0.32;;;12.30;99.90;;;12.33;100.00;100244.19;5236476;28;20048;-48
2023/12/25 06:16:53;;;;;;;0.40;0.30;;;12.30;99.90;;;12.31;100.00;100238.03;5226082;28;20050;-49
2023/12/25 06:19:25;;;;;;;0.30;0.30;;;12.30;99.90;;;12.32;100.00;100239.78;5226303;28;20061;-48
2023/12/25 06:21:58;;;;;;;0.20;0.20;;;12.30;99.90;;;12.30;100.00;100229.31;5226579;28;20166;-49
2023/12/25 06:24:30;;;;;;;0.63;0.28;;;12.20;99.90;;;12.28;100.00;100228.41;5234169;28;20061;-52
2023/12/25 06:27:03;;;;;;;0.10;0.10;;;12.20;99.90;;;12.26;100.00;100230.13;5225406;28;20048;-50
2023/12/25 06:29:35;;;;;;;0.22;0.22;;;12.20;99.90;;;12.25;100.00;100233.56;5225621;28;20048;-49
2023/12/25 06:32:09;;;;;;;0.10;0.10;;;12.20;99.90;;;12.23;100.00;100227.44;5225835;28;20079;-50
2023/12/25 06:34:41;;;;;;;0.10;0.10;;;12.20;99.90;;;12.21;100.00;100222.19;5226035;28;20049;-48
2023/12/25 06:37:14;;;;;;;0.10;0.10;;;12.10;99.90;;;12.19;100.00;100231.75;5236988;28;20411;-49
2023/12/25 06:39:46;;;;;;;0.22;0.22;;;12.10;99.90;;;12.19;100.00;100238.66;5225115;28;20102;-48
2023/12/25 06:42:19;;;;;;;0.60;0.20;;;12.10;99.90;;;12.17;100.00;100241.25;5235809;28;20477;-49
2023/12/25 06:44:51;;;;;;;0.10;0.10;;;12.10;99.90;;;12.16;100.00;100234.28;5226153;28;20045;-52
2023/12/25 06:47:25;;;;;;;0.20;0.20;;;12.10;99.90;;;12.16;100.00;100244.72;5225251;28;20045;-48
2023/12/25 06:49:57;;;;;;;0.43;0.43;;;12.10;99.90;;;12.15;100.00;100248.19;5226061;28;20098;-49
2023/12/25 06:52:30;;;;;;;1.50;0.32;;;12.10;99.90;;;12.14;100.00;100238.59;5225167;28;20527;-50
2023/12/25 06:55:02;;;;;;;0.10;0.10;;;12.10;99.90;;;12.16;100.00;100244.72;5225861;28;20067;-48
2023/12/25 06:57:35;;;;;;;0.22;0.22;;;12.10;99.90;;;12.14;100.00;100243.81;5223755;28;20516;-48
2023/12/25 07:00:09;;;;;;;0.60;0.60;;;12.00;99.90;;;12.13;100.00;100251.63;5225747;28;20045;-49
2023/12/25 07:02:42;;;;;;;0.13;0.13;;;12.10;99.90;;;12.11;100.00;100242.88;5233706;28;20462;-48
2023/12/25 07:05:15;;;;;;;0.15;0.15;;;12.00;99.90;;;12.09;100.00;100241.97;5225730;28;20059;-48
2023/12/25 07:07:47;;;;;;;0.45;0.22;;;12.00;99.90;;;12.10;100.00;100244.59;5221784;28;20495;-51
2023/12/25 07:10:20;;;;;;;0.13;0.13;;;12.00;99.90;;;12.09;100.00;100237.63;5225754;28;20065;-52
2023/12/25 07:12:52;;;;;;;0.20;0.20;;;12.00;99.90;;;12.10;100.00;100238.50;5225957;28;20049;-48
2023/12/25 07:15:25;;;;;;;0.13;0.13;;;12.00;99.90;;;12.09;100.00;100237.63;5220453;28;20057;-49
2023/12/25 07:17:58;;;;;;;0.20;0.20;;;12.00;99.90;;;12.11;100.00;100221.97;5221591;28;20053;-49
2023/12/25 07:20:31;;;;;;;0.60;0.60;;;12.00;99.90;;;12.09;100.00;100232.41;5236472;28;20056;-50
2023/12/25 07:23:04;;;;;;;0.32;0.32;;;12.00;99.90;;;12.09;100.00;100231.53;5222677;28;20131;-49
2023/12/25 07:25:36;;;;;;;0.20;0.20;;;12.00;99.90;;;12.07;100.00;100238.44;5222876;28;20052;-49
2023/12/25 07:28:08;;;;;;;0.22;0.22;;;12.00;99.90;;;12.06;100.00;100242.81;5221855;28;20152;-52
2023/12/25 07:30:43;;;;;;;1.27;0.10;;;12.00;99.90;;;12.05;100.00;100245.34;5222443;28;20385;-50
2023/12/25 07:33:17;;;;;;;;;;;12.00;99.90;;;12.05;100.00;100241.00;5222801;28;20136;-48
2023/12/25 07:35:49;;;;;;;0.22;0.22;;;12.00;99.90;;;12.06;100.00;100241.88;5222169;28;19948;-51
2023/12/25 07:38:22;;;;;;;1.77;0.28;;;12.00;99.90;;;12.07;100.00;100257.63;5223465;28;20508;-49
2023/12/25 07:40:54;;;;;;;0.20;0.20;;;12.00;99.90;;;12.06;100.00;100248.03;5221725;28;20045;-49
2023/12/25 07:43:27;;;;;;;0.40;0.32;;;12.00;99.90;;;12.06;100.00;100257.56;5220304;28;20504;-48
2023/12/25 07:45:59;;;;;;;0.03;0.03;;;12.00;99.90;;;12.06;100.00;100254.94;5221874;28;20596;-48
2023/12/25 07:48:33;;;;;;;0.35;0.22;;;11.90;99.90;;;12.06;100.00;100262.78;5222288;28;20048;-52
2023/12/25 07:51:05;;;;;;;0.20;0.20;;;12.00;99.90;;;12.05;100.00;100264.53;5222304;28;20053;-49
2023/12/25 07:53:38;;;;;;;0.90;0.38;;;12.00;99.90;;;12.05;100.00;100267.13;5223128;28;20045;-52
2023/12/25 07:56:10;;;;;;;0.17;0.17;;;12.00;99.90;;;12.05;100.00;100264.53;5221924;28;20053;-50
2023/12/25 07:58:42;;;;;;;0.22;0.22;;;12.00;99.90;;;12.07;100.00;100275.03;5221774;28;20044;-49
2023/12/25 08:01:15;;;;;;;0.22;0.22;;;12.00;99.90;;;12.07;100.00;100275.03;5222786;28;20049;-49
2023/12/25 08:03:48;;;;;;;0.20;0.20;;;12.00;99.90;;;12.05;100.00;100274.97;5218294;28;20067;-49
2023/12/25 08:06:22;;;;;;;0.20;0.20;;;12.00;99.90;;;12.07;100.00;100286.34;5221843;28;20044;-49
2023/12/25 08:08:54;;;;;;;0.35;0.35;;;12.00;99.90;;;12.07;100.00;100280.25;5222282;28;20049;-50
2023/12/25 08:11:28;;;;;;;0.43;0.20;;;12.00;99.90;;;12.10;100.00;100280.31;5232259;28;20038;-49
2023/12/25 08:14:00;;;;;;;0.30;0.30;;;12.00;99.90;;;12.11;100.00;100282.06;5223588;28;20056;-49
2023/12/25 08:16:32;;;;;;;0.15;0.15;;;12.00;99.90;;;12.12;100.00;100289.91;5230974;28;20049;-52
2023/12/25 08:19:06;;;;;;;0.13;0.13;;;12.00;99.90;;;12.15;100.00;100290.00;5222116;28;20055;-50
2023/12/25 08:21:39;;;;;;;0.35;0.35;;;12.00;99.90;;;12.15;100.00;100292.63;5220510;28;20140;-52
2023/12/25 08:24:11;;;;;;;0.20;0.20;;;12.10;99.90;;;12.15;100.00;100299.56;5222590;28;20063;-50
2023/12/25 08:26:43;;;;;;;0.63;0.25;;;12.10;99.90;;;12.15;100.00;100297.84;5221989;28;20053;-48
2023/12/25 08:29:16;;;;;;;0.13;0.13;;;12.00;99.90;;;12.16;100.00;100299.59;5221865;28;20053;-50
2023/12/25 08:31:48;;;;;;;0.20;0.20;;;12.10;99.90;;;12.18;100.00;100303.09;5231313;28;20041;-50
2023/12/25 08:34:23;;;;;;;0.10;0.10;;;12.10;99.90;;;12.20;100.00;100308.38;5221696;28;20408;-50
2023/12/25 08:36:56;;;;;;;0.22;0.22;;;12.10;99.90;;;12.21;100.00;100292.75;5221168;28;20110;-50
2023/12/25 08:39:28;;;;;;;2.08;0.28;;;12.10;99.90;;;12.20;100.00;100296.22;5219828;28;20041;-49
2023/12/25 08:42:03;;;;;;;0.22;0.22;;;12.10;99.90;;;12.21;100.00;100295.34;5222436;28;20056;-48
2023/12/25 08:44:35;;;;;;;0.30;0.30;;;12.10;99.90;;;12.22;100.00;100286.66;5222237;28;20057;-49
2023/12/25 08:47:07;;;;;;;0.20;0.20;;;12.10;99.90;;;12.23;100.00;100293.63;5221583;28;20067;-50
2023/12/25 08:49:42;;;;;;;0.22;0.22;;;12.10;99.90;;;12.23;100.00;100298.88;5221577;28;20045;-50
2023/12/25 08:52:14;;;;;;;0.32;0.32;;;12.20;99.90;;;12.24;100.00;100299.75;5222569;28;20053;-50
2023/12/25 08:54:46;;;;;;;0.22;0.15;;;12.10;99.90;;;12.26;100.00;100291.94;5219001;28;20504;-50
2023/12/25 08:57:19;;;;;;;0.25;0.25;;;12.20;99.90;;;12.29;100.00;100294.63;5222337;28;20059;-49
2023/12/25 08:59:51;;;;;;;0.20;0.20;;;12.20;99.90;;;12.29;100.00;100305.06;5222833;28;20048;-48
2023/12/25 09:02:24;;;;;;;0.20;0.20;;;12.20;99.90;;;12.29;100.00;100297.22;5222293;28;20128;-49
2023/12/25 09:04:58;;;;;;;0.32;0.32;;;12.20;99.90;;;12.29;100.00;100294.63;5185462;28;20151;-50
2023/12/25 09:07:30;;;;;;;0.50;0.30;;;12.20;99.90;;;12.29;100.00;100307.69;5218263;28;20047;-49
2023/12/25 09:10:04;;;;;;;0.20;0.20;;;12.20;99.90;;;12.33;100.00;100320.84;5216118;28;20057;-51
2023/12/25 09:12:37;;;;;;;0.20;0.20;;;12.20;99.90;;;12.36;100.00;100327.88;5217098;28;20522;-51
2023/12/25 09:15:10;;;;;;;0.22;0.22;;;12.20;99.90;;;12.38;100.00;100332.25;5215541;28;20419;-49
2023/12/25 09:17:42;;;;;;;0.30;0.30;;;12.30;99.90;;;12.40;100.00;100334.94;5217059;28;20516;-49
2023/12/25 09:20:16;;;;;;;0.22;0.22;;;12.30;99.90;;;12.42;100.00;100341.06;5219739;28;20057;-49
2023/12/25 09:22:49;;;;;;;0.20;0.20;;;12.30;99.90;;;12.43;100.00;100337.59;5215388;28;20148;-50
2023/12/25 09:25:21;;;;;;;0.13;0.13;;;12.30;99.90;;;12.43;100.00;100342.81;5215610;28;20045;-52
2023/12/25 09:27:55;;;;;;;0.30;0.30;;;12.30;99.90;;;12.44;100.00;100348.06;5217472;28;20531;-49
2023/12/25 09:30:27;;;;;;;0.40;0.38;;;12.30;99.90;;;12.44;100.00;100341.97;5217999;28;20099;-49
2023/12/25 09:33:00;;;;;;;0.22;0.22;;;12.40;99.90;;;12.46;100.00;100358.56;5216901;28;20045;-49
2023/12/25 09:35:34;;;;;;;0.13;0.13;;;12.40;99.90;;;12.48;100.00;100356.88;5215799;28;20435;-50
2023/12/25 09:38:06;;;;;;;2.55;0.32;;;12.40;99.90;;;12.50;100.00;100360.38;5213945;28;20045;-49
2023/12/25 09:40:39;;;;;;;0.88;0.40;;;12.40;99.90;;;12.67;100.00;100359.00;5215689;28;20064;-47
2023/12/25 09:43:11;;;;;;;0.20;0.20;;;12.50;99.90;;;12.81;100.00;100363.59;5219697;28;20037;-50
2023/12/25 09:45:44;;;;;;;0.10;0.10;;;12.70;99.90;;;12.82;100.00;100363.63;5217099;28;20044;-52
2023/12/25 09:48:19;;;;;;;0.30;0.30;;;12.70;99.90;;;12.80;100.00;100359.22;5210892;28;20048;-51
2023/12/25 09:50:52;;;;;;;0.22;0.22;;;12.80;99.90;;;12.77;100.00;100354.81;5218266;28;20049;-49
2023/12/25 09:53:25;;;;;;;0.22;0.22;;;12.70;99.90;;;12.73;100.00;100342.53;5211785;28;20041;-49
2023/12/25 09:55:59;;;;;;;0.30;0.30;;;12.70;99.90;;;12.72;100.00;100346.91;5215360;28;20053;-48
2023/12/25 09:58:33;;;;;;;0.22;0.22;;;12.70;99.90;;;12.72;100.00;100356.47;5209727;28;20136;-48
2023/12/25 10:01:06;;;;;;;0.28;0.28;;;12.60;99.90;;;12.70;100.00;100359.03;5212572;28;20060;-50
2023/12/25 10:03:42;;;;;;;0.28;0.28;;;12.60;99.90;;;12.69;100.00;100356.41;5210461;28;20044;-48
2023/12/25 10:06:15;;;;;;;0.38;0.35;;;12.60;99.90;;;12.69;100.00;100359.91;5205683;28;20116;-48
2023/12/25 10:08:48;;;;;;;0.28;0.28;;;12.60;99.90;;;12.67;100.00;100353.75;5211300;28;20064;-49
2023/12/25 10:11:21;;;;;;;0.20;0.20;;;12.60;99.90;;;12.68;100.00;100365.97;5213273;28;20524;-47
2023/12/25 10:13:53;;;;;;;0.22;0.22;;;12.60;99.90;;;12.67;100.00;100353.75;5215527;28;20051;-48
2023/12/25 10:16:27;;;;;;;0.28;0.28;;;12.60;99.90;;;12.66;100.00;100357.22;5213631;28;20049;-48
2023/12/25 10:19:00;;;;;;;0.20;0.20;;;12.60;99.90;;;12.67;100.00;100359.00;5210089;28;20115;-47
2023/12/25 10:21:44;;;;;;;0.22;0.22;;;12.60;99.90;;;12.71;100.00;100354.69;5210822;28;20041;-48
2023/12/25 10:24:17;;;;;;;0.22;0.22;;;12.60;99.90;;;12.71;100.00;100359.91;5215595;28;20079;-48
2023/12/25 10:26:50;;;;;;;0.20;0.20;;;12.60;99.90;;;12.71;100.00;100354.69;5208570;28;20053;-48
2023/12/25 10:29:35;;;;;;;0.20;0.20;;;12.60;99.90;;;12.71;100.00;100359.91;5215846;28;20045;-48
2023/12/25 10:32:20;;;;;;;0.30;0.30;;;12.60;99.90;;;12.73;100.00;100361.72;5222646;28;20064;-48